地図

経路データ

SID SEASON NUMBER BASIN SUBBASIN NAME ISO_TIME NATURE LAT LON WMO_WIND WMO_PRES WMO_AGENCY TRACK_TYPE DIST2LAND LANDFALL IFLAG USA_AGENCY USA_ATCF_ID USA_LAT USA_LON USA_RECORD USA_STATUS USA_WIND USA_PRES USA_SSHS USA_R34_NE USA_R34_SE USA_R34_SW USA_R34_NW USA_R50_NE USA_R50_SE USA_R50_SW USA_R50_NW USA_R64_NE USA_R64_SE USA_R64_SW USA_R64_NW USA_POCI USA_ROCI USA_RMW USA_EYE TOKYO_LAT TOKYO_LON TOKYO_GRADE TOKYO_WIND TOKYO_PRES TOKYO_R50_DIR TOKYO_R50_LONG TOKYO_R50_SHORT TOKYO_R30_DIR TOKYO_R30_LONG TOKYO_R30_SHORT TOKYO_LAND CMA_LAT CMA_LON CMA_CAT CMA_WIND CMA_PRES HKO_LAT HKO_LON HKO_CAT HKO_WIND HKO_PRES NEWDELHI_LAT NEWDELHI_LON NEWDELHI_GRADE NEWDELHI_WIND NEWDELHI_PRES NEWDELHI_CI NEWDELHI_DP NEWDELHI_POCI REUNION_LAT REUNION_LON REUNION_TYPE REUNION_WIND REUNION_PRES REUNION_TNUM REUNION_CI REUNION_RMW REUNION_R34_NE REUNION_R34_SE REUNION_R34_SW REUNION_R34_NW REUNION_R50_NE REUNION_R50_SE REUNION_R50_SW REUNION_R50_NW REUNION_R64_NE REUNION_R64_SE REUNION_R64_SW REUNION_R64_NW BOM_LAT BOM_LON BOM_TYPE BOM_WIND BOM_PRES BOM_TNUM BOM_CI BOM_RMW BOM_R34_NE BOM_R34_SE BOM_R34_SW BOM_R34_NW BOM_R50_NE BOM_R50_SE BOM_R50_SW BOM_R50_NW BOM_R64_NE BOM_R64_SE BOM_R64_SW BOM_R64_NW BOM_ROCI BOM_POCI BOM_EYE BOM_POS_METHOD BOM_PRES_METHOD NADI_LAT NADI_LON NADI_CAT NADI_WIND NADI_PRES WELLINGTON_LAT WELLINGTON_LON WELLINGTON_WIND WELLINGTON_PRES DS824_LAT DS824_LON DS824_STAGE DS824_WIND DS824_PRES TD9636_LAT TD9636_LON TD9636_STAGE TD9636_WIND TD9636_PRES TD9635_LAT TD9635_LON TD9635_WIND TD9635_PRES TD9635_ROCI NEUMANN_LAT NEUMANN_LON NEUMANN_CLASS NEUMANN_WIND NEUMANN_PRES MLC_LAT MLC_LON MLC_CLASS MLC_WIND MLC_PRES USA_GUST BOM_GUST BOM_GUST_PER REUNION_GUST REUNION_GUST_PER USA_SEAHGT USA_SEARAD_NE USA_SEARAD_SE USA_SEARAD_SW USA_SEARAD_NW STORM_SPEED STORM_DIR
1956254N20128 1956 86 WP MM NOT_NAMED 1956-09-10 06:00:00 TS 20.0000 127.500 main 574 548 __O___________ -1 20.0000 127.500 0 1002 6 219
1956254N20128 1956 86 WP MM NOT_NAMED 1956-09-10 09:00:00 TS 19.7474 127.285 main 545 509 __P___________ -1 19.7474 127.285 0 1002 7 223
1956254N20128 1956 86 WP MM NOT_NAMED 1956-09-10 12:00:00 TS 19.5000 127.000 main 509 463 __O___________ -1 19.5000 127.000 0 1003 8 233
1956254N20128 1956 86 WP MM NOT_NAMED 1956-09-10 15:00:00 TS 19.2701 126.607 main 463 418 __P___________ -1 19.2701 126.607 0 1003 9 242
1956254N20128 1956 86 WP MM NOT_NAMED 1956-09-10 18:00:00 TS 19.1000 126.200 main 418 385 __O___________ -1 19.1000 126.200 0 1003 7 250
1956254N20128 1956 86 WP MM NOT_NAMED 1956-09-10 21:00:00 TS 19.0199 125.885 main 385 354 __P___________ -1 19.0199 125.885 0 1003 6 260
1956254N20128 1956 86 WP MM NOT_NAMED 1956-09-11 00:00:00 TS 19.0000 125.600 main 354 323 __O___________ -1 19.0000 125.600 0 1004 6 266
1956254N20128 1956 86 WP MM NOT_NAMED 1956-09-11 03:00:00 TS 18.9850 125.293 main 323 292 __P___________ -1 18.9850 125.293 0 1004 6 270
1956254N20128 1956 86 WP MM NOT_NAMED 1956-09-11 06:00:00 TS 19.0000 125.000 main 292 271 __O___________ -1 19.0000 125.000 0 1004 5 276
1956254N20128 1956 86 WP MM NOT_NAMED 1956-09-11 09:00:00 TS 19.0424 124.758 main 271 244 __P___________ -1 19.0424 124.758 0 1003 5 282
1956254N20128 1956 86 WP MM NOT_NAMED 1956-09-11 12:00:00 TS 19.1000 124.500 main 244 214 __O___________ -1 19.1000 124.500 0 1003 6 280
1956254N20128 1956 86 WP MM NOT_NAMED 1956-09-11 15:00:00 TS 19.1425 124.172 main 214 181 __P___________ -1 19.1425 124.172 0 1003 7 279
1956254N20128 1956 86 WP MM NOT_NAMED 1956-09-11 18:00:00 TS 19.2000 123.800 main 181 153 __O___________ -1 19.2000 123.800 0 1003 8 282
1956254N20128 1956 86 WP MM NOT_NAMED 1956-09-11 21:00:00 TS 19.3000 123.393 main 153 133 __P___________ -1 19.3000 123.393 0 1002 8 285
1956254N20128 1956 86 WP MM NOT_NAMED 1956-09-12 00:00:00 TS 19.4000 123.000 main 133 119 __O___________ -1 19.4000 123.000 1 23 1002 7 283
1956254N20128 1956 86 WP MM NOT_NAMED 1956-09-12 03:00:00 TS 19.4498 122.700 main 119 119 __P___________ -1 19.4498 122.700 1 23 1002 6 280
1956254N20128 1956 86 WP MM NOT_NAMED 1956-09-12 06:00:00 TS 19.5000 122.400 main 123 123 __O___________ -1 19.5000 122.400 1 23 1002 6 281
1956254N20128 1956 86 WP MM NOT_NAMED 1956-09-12 09:00:00 TS 19.5698 122.037 main 134 130 __P___________ -1 19.5698 122.037 1 23 1002 8 285
1956254N20128 1956 86 WP MM NOT_NAMED 1956-09-12 12:00:00 TS 19.7000 121.600 main 135 134 __O___________ -1 19.7000 121.600 1 23 1002 10 292
1956254N20128 1956 86 WP MM NOT_NAMED 1956-09-12 15:00:00 TS 19.9352 121.058 main 146 145 __P___________ -1 19.9352 121.058 1 1002 12 296
1956254N20128 1956 86 WP MM NOT_NAMED 1956-09-12 18:00:00 TS 20.2000 120.500 main 181 175 __O___________ -1 20.2000 120.500 0 1002 11 298
1956254N20128 1956 86 WP MM NOT_NAMED 1956-09-12 21:00:00 TS 20.4446 120.058 main 178 172 __P___________ -1 20.4446 120.058 0 1002 9 295
1956254N20128 1956 86 WP MM NOT_NAMED 1956-09-13 00:00:00 TS 20.6000 119.600 main 184 184 __O___________ -1 20.6000 119.600 0 1002 10 279
1956254N20128 1956 86 WP MM NOT_NAMED 1956-09-13 03:00:00 TS 20.6026 119.007 main 228 228 __P___________ -1 20.6026 119.007 0 1002 11 265
1956254N20128 1956 86 WP MM NOT_NAMED 1956-09-13 06:00:00 TS 20.5000 118.400 main 285 285 __O___________ -1 20.5000 118.400 0 1002 11 257
1956254N20128 1956 86 WP MM NOT_NAMED 1956-09-13 09:00:00 TS 20.3572 117.885 main 314 312 __P___________ -1 20.3572 117.885 0 1002 10 252
1956254N20128 1956 86 WP MM NOT_NAMED 1956-09-13 12:00:00 TS 20.2000 117.400 main 315 310 __O___________ -1 20.2000 117.400 0 1002 10 254
1956254N20128 1956 86 WP MM NOT_NAMED 1956-09-13 15:00:00 TS 20.0854 116.905 main 312 305 __P___________ -1 20.0854 116.905 0 1003 10 258
1956254N20128 1956 86 WP MM NOT_NAMED 1956-09-13 18:00:00 TS 20.0000 116.400 main 308 __O___________ -1 20.0000 116.400 0 1005 10 260

デジタル台風データ・検索

IBTrACS Databaseについて

本データベースは、米国NOAAが公開する1842年以降の世界の熱帯低気圧のベストトラックデータアーカイブInternational Best Track Archive for Climate Stewardship (IBTrACS)を、ウェブで閲覧しやすい形式に変換したものです。

最終更新日:2021-11-26